createdAt,value
2019-04-05T00:00:37.522Z,99701.41
2019-04-05T00:04:41.139Z,99693.62
2019-04-05T00:08:44.751Z,99698.97
2019-04-05T00:12:48.364Z,99685.72
2019-04-05T00:16:52.093Z,99700.25
2019-04-05T00:20:55.711Z,99707.45
2019-04-05T00:24:59.314Z,99727.79
2019-04-05T00:29:03.229Z,99727.79
2019-04-05T00:33:06.971Z,99736.50
2019-04-05T00:37:10.663Z,99743.48
2019-04-05T00:41:14.275Z,99735.45
2019-04-05T00:45:27.448Z,99724.53
2019-04-05T00:49:23.551Z,99746.27
2019-04-05T00:53:27.268Z,99755.45
2019-04-05T00:57:30.988Z,99748.02
2019-04-05T01:01:35.000Z,99752.20
2019-04-05T01:05:39.645Z,99744.42
2019-04-05T01:09:43.360Z,99749.77
2019-04-05T01:13:47.078Z,99749.42
2019-04-05T01:17:51.099Z,99749.19
2019-04-05T01:21:56.351Z,99749.30
2019-04-05T01:26:01.762Z,99748.48
2019-04-05T01:30:11.772Z,99754.06
2019-04-05T01:34:15.547Z,99751.05
2019-04-05T01:38:19.410Z,99740.36
2019-04-05T01:42:23.330Z,99736.05
2019-04-05T01:46:27.047Z,99739.30
2019-04-05T01:50:31.073Z,99745.70
2019-04-05T01:54:34.789Z,99755.11
2019-04-05T01:58:38.402Z,99754.30
2019-04-05T02:02:42.534Z,99736.63
2019-04-05T02:06:46.260Z,99736.98
2019-04-05T02:10:49.979Z,99734.66
2019-04-05T02:14:53.606Z,99740.36
2019-04-05T02:18:57.211Z,99732.92
2019-04-05T02:23:01.054Z,99735.83
2019-04-05T02:27:04.846Z,99725.13
2019-04-05T02:31:08.572Z,99733.04
2019-04-05T02:35:12.788Z,99727.92
2019-04-05T02:39:16.503Z,99745.82
2019-04-05T02:43:21.755Z,99747.68
2019-04-05T02:47:25.779Z,99762.44
2019-04-05T02:51:31.749Z,99769.41
2019-04-05T02:55:37.761Z,99772.20
2019-04-05T02:59:42.425Z,99766.27
2019-04-05T03:03:46.379Z,99766.63
2019-04-05T03:07:50.402Z,99768.37
2019-04-05T03:11:54.625Z,99771.85
2019-04-05T03:16:01.561Z,99772.67
2019-04-05T03:20:06.636Z,99781.97
2019-04-05T03:24:13.367Z,99777.44
2019-04-05T03:28:17.570Z,99781.38
2019-04-05T03:32:21.557Z,99796.50
2019-04-05T03:36:25.685Z,99801.48
2019-04-05T03:40:29.654Z,99804.52
2019-04-05T03:44:33.609Z,99811.72
2019-04-05T03:48:37.444Z,99821.14
2019-04-05T03:52:41.314Z,99823.70
2019-04-05T03:56:45.012Z,99828.23
2019-04-05T04:00:48.757Z,99836.02
2019-04-05T04:04:52.554Z,99837.52
2019-04-05T04:08:56.733Z,99843.45
2019-04-05T04:13:00.750Z,99849.63
2019-04-05T04:17:12.760Z,99846.23
2019-04-05T04:21:34.152Z,99846.00
2019-04-05T04:25:39.186Z,99850.06
2019-04-05T04:29:42.919Z,99853.33
2019-04-05T04:33:47.351Z,99860.55
2019-04-05T04:37:51.375Z,99850.41
2019-04-05T04:41:55.194Z,99841.69
2019-04-05T04:45:59.111Z,99841.91
2019-04-05T04:50:03.008Z,99832.38
2019-04-05T04:54:06.855Z,99838.66
2019-04-05T04:58:10.876Z,99868.64
2019-04-05T05:02:14.695Z,99866.91
2019-04-05T05:06:18.512Z,99860.51
2019-04-05T05:10:22.434Z,99859.94
2019-04-05T05:14:27.199Z,99863.30
2019-04-05T05:18:31.049Z,99863.78
2019-04-05T05:22:35.326Z,99868.54
2019-04-05T05:26:39.449Z,99857.61
2019-04-05T05:30:43.266Z,99867.86
2019-04-05T05:34:47.191Z,99887.84
2019-04-05T05:38:51.475Z,99892.27
2019-04-05T05:42:55.233Z,99889.00
2019-04-05T05:46:58.950Z,99887.03
2019-04-05T05:51:02.828Z,99890.53
2019-04-05T05:55:06.994Z,99890.42
2019-04-05T05:59:10.611Z,99896.02
2019-04-05T06:03:16.662Z,99891.94
2019-04-05T06:07:20.175Z,99891.02
2019-04-05T06:11:24.011Z,99906.14
2019-04-05T06:15:27.629Z,99905.67
2019-04-05T06:19:31.237Z,99902.87
2019-04-05T06:23:34.854Z,99916.49
2019-04-05T06:27:38.568Z,99918.59
2019-04-05T06:31:42.331Z,99919.52
2019-04-05T06:35:45.941Z,99930.11
2019-04-05T06:39:49.717Z,99928.71
2019-04-05T06:43:53.279Z,99928.12
2019-04-05T06:47:56.944Z,99929.17
2019-04-05T06:52:00.558Z,99923.74
2019-04-05T06:56:04.386Z,99925.14
2019-04-05T07:00:08.295Z,99932.81
2019-04-05T07:04:11.967Z,99924.66
2019-04-05T07:08:18.143Z,99934.67
2019-04-05T07:12:20.965Z,99950.72
2019-04-05T07:16:24.653Z,99950.72
2019-04-05T07:20:28.267Z,99946.86
2019-04-05T07:24:31.878Z,99944.67
2019-04-05T07:28:35.597Z,99946.65
2019-04-05T07:32:39.209Z,99955.71
2019-04-05T07:36:42.826Z,99939.09
2019-04-05T07:40:46.538Z,99956.06
2019-04-05T07:44:51.282Z,99958.05
2019-04-05T07:48:54.997Z,99966.17
2019-04-05T07:52:58.673Z,99963.70
2019-04-05T07:57:02.439Z,99958.89
2019-04-05T08:01:06.535Z,99961.86
2019-04-05T08:05:10.169Z,99964.89
2019-04-05T08:09:15.679Z,99960.48
2019-04-05T08:13:20.615Z,99958.58
2019-04-05T08:17:24.390Z,99959.99
2019-04-05T08:21:28.004Z,99962.66
2019-04-05T08:25:32.764Z,99970.46
2019-04-05T08:29:36.357Z,99966.34
2019-04-05T08:33:40.074Z,99972.71
2019-04-05T08:37:44.211Z,99971.47
2019-04-05T08:41:47.921Z,99958.72
2019-04-05T08:45:51.528Z,99947.55
2019-04-05T08:49:55.139Z,99956.97
2019-04-05T08:53:58.861Z,99955.64
2019-04-05T08:58:02.497Z,99966.09
2019-04-05T09:02:06.088Z,99976.23
2019-04-05T09:06:09.809Z,99974.58
2019-04-05T09:10:13.723Z,99980.63
2019-04-05T09:14:17.335Z,99986.05
2019-04-05T09:18:20.953Z,99980.95
2019-04-05T09:22:24.629Z,99983.89
2019-04-05T09:26:28.278Z,99982.39
2019-04-05T09:30:31.996Z,99986.32
2019-04-05T09:34:35.610Z,99978.48
2019-04-05T09:38:39.327Z,99978.48
2019-04-05T09:42:43.046Z,99979.83
2019-04-05T09:46:50.875Z,99978.28
2019-04-05T09:50:52.013Z,99966.08
2019-04-05T09:54:56.859Z,99962.42
2019-04-05T09:59:00.470Z,99965.93
2019-04-05T10:03:04.288Z,99972.56
2019-04-05T10:07:08.515Z,99970.25
2019-04-05T10:11:12.230Z,99971.12
2019-04-05T10:15:16.360Z,99967.86
2019-04-05T10:19:19.970Z,99968.41
2019-04-05T10:23:23.584Z,99972.45
2019-04-05T10:27:27.202Z,99977.03
2019-04-05T10:31:30.812Z,99977.93
2019-04-05T10:35:34.427Z,99984.82
2019-04-05T10:39:38.042Z,99986.03
2019-04-05T10:43:41.757Z,99987.61
2019-04-05T10:47:45.327Z,99991.06
2019-04-05T10:51:49.191Z,99991.77
2019-04-05T10:55:52.911Z,99995.53
2019-04-05T10:59:56.620Z,100003.37
2019-04-05T11:04:00.345Z,100014.80
2019-04-05T11:08:04.063Z,100014.72
2019-04-05T11:12:08.757Z,100014.72
2019-04-05T11:16:13.438Z,100014.34
2019-04-05T11:20:21.780Z,100017.92
2019-04-05T11:24:22.815Z,100024.34
2019-04-05T11:28:26.531Z,100023.17
2019-04-05T11:32:30.760Z,100033.04
2019-04-05T11:36:34.850Z,100031.70
2019-04-05T11:40:39.040Z,100037.73
2019-04-05T11:44:43.337Z,100040.45
2019-04-05T11:48:47.912Z,100044.28
2019-04-05T11:52:51.694Z,100045.55
2019-04-05T11:56:55.561Z,100055.61
2019-04-05T12:01:19.026Z,100054.98
2019-04-05T12:05:37.150Z,100057.92
2019-04-05T12:09:40.840Z,100048.92
2019-04-05T12:13:47.410Z,100047.63
2019-04-05T12:17:49.777Z,100043.55
2019-04-05T12:21:53.381Z,100048.21
2019-04-05T12:25:57.098Z,100047.02
2019-04-05T12:30:00.712Z,100050.08
2019-04-05T12:34:05.361Z,100050.89
2019-04-05T12:38:09.071Z,100046.69
2019-04-05T12:42:13.033Z,100045.57
2019-04-05T12:46:16.913Z,100054.45
2019-04-05T12:50:20.625Z,100062.45
2019-04-05T12:54:24.340Z,100069.63
2019-04-05T12:58:27.952Z,100063.63
2019-04-05T13:02:33.887Z,100061.94
2019-04-05T13:06:37.023Z,100056.24
2019-04-05T13:10:40.795Z,100064.49
2019-04-05T13:14:44.309Z,100066.70
2019-04-05T13:18:47.970Z,100070.03
2019-04-05T13:22:51.587Z,100063.87
2019-04-05T13:26:55.298Z,100063.77
2019-04-05T13:30:59.020Z,100067.26
2019-04-05T13:35:02.592Z,100065.81
2019-04-05T13:39:07.679Z,100062.48
2019-04-05T13:43:11.292Z,100061.55
2019-04-05T13:47:15.058Z,100058.81
2019-04-05T13:51:27.707Z,100063.56
2019-04-05T13:55:24.079Z,100055.85
2019-04-05T13:59:28.511Z,100061.98
2019-04-05T14:03:32.583Z,100058.77
2019-04-05T14:07:36.351Z,100061.75
2019-04-05T14:11:40.143Z,100058.52
2019-04-05T14:15:43.929Z,100050.03
2019-04-05T14:19:48.748Z,100044.29
2019-04-05T14:23:53.915Z,100048.61
2019-04-05T14:27:57.512Z,100043.09
2019-04-05T14:32:19.470Z,100047.40
2019-04-05T14:36:06.668Z,100046.92
2019-04-05T14:40:13.868Z,100043.28
2019-04-05T14:44:16.352Z,100043.28
2019-04-05T14:48:19.963Z,100041.84
2019-04-05T14:52:25.644Z,100048.56
2019-04-05T14:56:29.316Z,100053.47
2019-04-05T15:00:33.370Z,100046.54
2019-04-05T15:04:36.992Z,100044.36
2019-04-05T15:08:40.817Z,100042.68
2019-04-05T15:12:44.413Z,100046.43
2019-04-05T15:16:48.131Z,100052.09
2019-04-05T15:20:51.709Z,100052.09
2019-04-05T15:24:56.380Z,100053.66
2019-04-05T15:29:00.098Z,100060.15
2019-04-05T15:33:04.306Z,100068.57
2019-04-05T15:37:07.938Z,100059.02
2019-04-05T15:41:11.657Z,100062.50
2019-04-05T15:45:16.612Z,100060.74
2019-04-05T15:49:21.560Z,100059.36
2019-04-05T15:53:26.286Z,100063.31
2019-04-05T15:57:33.462Z,100055.42
2019-04-05T16:01:35.354Z,100056.36
2019-04-05T16:05:39.174Z,100059.67
2019-04-05T16:09:42.787Z,100061.45
2019-04-05T16:13:46.403Z,100068.31
2019-04-05T16:17:50.017Z,100076.85
2019-04-05T16:21:53.583Z,100075.67
2019-04-05T16:25:57.240Z,100076.98
2019-04-05T16:30:00.864Z,100082.95
2019-04-05T16:34:04.676Z,100090.17
2019-04-05T16:38:08.312Z,100084.70
2019-04-05T16:42:12.009Z,100090.97
2019-04-05T16:46:15.635Z,100089.16
2019-04-05T16:50:21.387Z,100095.25
2019-04-05T16:54:25.001Z,100101.00
2019-04-05T16:58:28.716Z,100105.09
2019-04-05T17:02:33.405Z,100101.02
2019-04-05T17:06:37.141Z,100109.53
2019-04-05T17:10:40.918Z,100115.34
2019-04-05T17:15:05.477Z,100115.00
2019-04-05T17:19:09.094Z,100115.71
2019-04-05T17:23:12.710Z,100113.12
2019-04-05T17:27:16.298Z,100109.51
2019-04-05T17:31:20.013Z,100109.15
2019-04-05T17:35:23.629Z,100109.77
2019-04-05T17:39:27.343Z,100117.09
2019-04-05T17:43:31.060Z,100110.20
2019-04-05T17:47:34.777Z,100122.45
2019-04-05T17:51:38.389Z,100126.55
2019-04-05T17:55:42.356Z,100126.55
2019-04-05T17:59:48.383Z,100130.88
2019-04-05T18:03:52.101Z,100138.91
2019-04-05T18:07:55.815Z,100146.02
2019-04-05T18:11:59.433Z,100144.48
2019-04-05T18:16:03.358Z,100145.55
2019-04-05T18:20:09.894Z,100146.38
2019-04-05T18:24:13.648Z,100150.22
2019-04-05T18:28:17.270Z,100145.09
2019-04-05T18:32:20.882Z,100151.62
2019-04-05T18:36:24.694Z,100150.69
2019-04-05T18:40:39.487Z,100160.13
2019-04-05T18:44:34.589Z,100158.61
2019-04-05T18:48:38.212Z,100161.04
2019-04-05T18:52:44.245Z,100181.20
2019-04-05T18:56:47.988Z,100190.53
2019-04-05T19:00:53.563Z,100195.55
2019-04-05T19:04:57.497Z,100187.95
2019-04-05T19:09:01.624Z,100192.13
2019-04-05T19:13:05.766Z,100199.02
2019-04-05T19:17:22.851Z,100203.89
2019-04-05T19:21:15.851Z,100207.84
2019-04-05T19:25:20.124Z,100207.09
2019-04-05T19:29:24.355Z,100207.83
2019-04-05T19:49:50.840Z,100200.55
2019-04-05T19:54:01.328Z,100211.16
2019-04-05T19:58:02.979Z,100209.17
2019-04-05T20:02:06.798Z,100209.75
2019-04-05T20:06:10.720Z,100205.45
2019-04-05T20:10:14.651Z,100206.27
2019-04-05T20:14:18.286Z,100211.16
2019-04-05T20:18:22.040Z,100207.89
2019-04-05T20:22:25.687Z,100214.17
2019-04-05T20:26:29.301Z,100214.75
2019-04-05T20:30:32.916Z,100223.83
2019-04-05T20:34:36.734Z,100214.16
2019-04-05T20:38:41.378Z,100223.48
2019-04-05T20:42:44.986Z,100220.91
2019-04-05T20:46:48.905Z,100224.18
2019-04-05T20:50:52.519Z,100227.67
2019-04-05T20:54:56.239Z,100231.98
2019-04-05T20:59:01.281Z,100227.78
2019-04-05T21:03:05.103Z,100234.42
2019-04-05T21:07:08.719Z,100235.72
2019-04-05T21:11:12.432Z,100221.02
2019-04-05T21:15:16.043Z,100232.45
2019-04-05T21:19:19.607Z,100242.83
2019-04-05T21:23:23.273Z,100244.92
2019-04-05T21:27:26.897Z,100249.39
2019-04-05T21:31:30.618Z,100249.72
2019-04-05T21:35:34.229Z,100252.72
2019-04-05T21:39:38.763Z,100259.34
2019-04-05T21:43:44.527Z,100250.48
2019-04-05T21:47:48.142Z,100254.44
2019-04-05T21:51:51.753Z,100239.41
2019-04-05T21:55:55.469Z,100243.12
2019-04-05T21:59:59.082Z,100242.70
2019-04-05T22:04:03.122Z,100232.17
2019-04-05T22:08:06.730Z,100227.20
2019-04-05T22:12:10.338Z,100216.82
2019-04-05T22:16:14.253Z,100217.62
2019-04-05T22:20:18.804Z,100217.22
2019-04-05T22:24:22.406Z,100218.16
2019-04-05T22:28:26.325Z,100195.27
2019-04-05T22:32:29.937Z,100205.45
2019-04-05T22:36:33.654Z,100216.55
2019-04-05T22:40:37.269Z,100219.05
2019-04-05T22:44:41.618Z,100225.14
2019-04-05T22:48:45.518Z,100233.20
2019-04-05T22:52:49.131Z,100246.04
2019-04-05T22:56:52.682Z,100244.00
2019-04-05T23:00:56.405Z,100247.19
2019-04-05T23:05:01.015Z,100248.56
2019-04-05T23:09:07.039Z,100247.23
2019-04-05T23:13:10.786Z,100254.16
2019-04-05T23:17:14.736Z,100237.33
2019-04-05T23:21:18.326Z,100238.97
2019-04-05T23:25:22.506Z,100239.19
2019-04-05T23:29:26.264Z,100242.55
2019-04-05T23:33:29.876Z,100244.45
2019-04-05T23:37:33.592Z,100247.63
2019-04-05T23:41:37.305Z,100257.21
2019-04-05T23:45:40.923Z,100256.45
2019-04-05T23:49:44.639Z,100259.91
2019-04-05T23:53:48.253Z,100269.61
2019-04-05T23:57:51.868Z,100260.98
